createdAt,value
2019-03-15T00:01:57.600Z,4.30
2019-03-15T00:04:58.368Z,4.20
2019-03-15T00:07:58.587Z,4.20
2019-03-15T00:11:08.678Z,4.20
2019-03-15T00:14:09.825Z,4.10
2019-03-15T00:17:11.290Z,4.10
2019-03-15T00:20:12.391Z,4.00
2019-03-15T00:23:13.073Z,4.00
2019-03-15T00:26:14.180Z,3.90
2019-03-15T00:29:14.358Z,4.00
2019-03-15T00:32:15.460Z,4.00
2019-03-15T00:35:16.373Z,4.10
2019-03-15T00:38:17.417Z,4.20
2019-03-15T00:41:18.415Z,4.20
2019-03-15T00:44:19.407Z,4.30
2019-03-15T00:47:20.550Z,4.30
2019-03-15T00:50:21.679Z,4.40
2019-03-15T00:53:22.959Z,4.30
2019-03-15T00:56:24.777Z,4.40
2019-03-15T00:59:25.901Z,4.30
2019-03-15T01:02:26.825Z,4.40
2019-03-15T01:05:27.785Z,4.40
2019-03-15T01:08:29.092Z,4.40
2019-03-15T01:11:30.011Z,4.30
2019-03-15T01:14:31.379Z,4.30
2019-03-15T01:17:32.434Z,4.40
2019-03-15T01:20:33.544Z,4.30
2019-03-15T01:23:34.715Z,4.40
2019-03-15T01:26:35.770Z,4.30
2019-03-15T01:29:36.851Z,4.30
2019-03-15T01:32:38.277Z,4.40
2019-03-15T01:35:39.501Z,4.30
2019-03-15T01:38:40.677Z,4.30
2019-03-15T01:41:41.768Z,4.30
2019-03-15T01:44:42.755Z,4.20
2019-03-15T01:47:43.645Z,4.10
2019-03-15T01:50:44.846Z,4.20
2019-03-15T01:53:45.799Z,4.10
2019-03-15T01:56:46.876Z,4.10
2019-03-15T01:59:48.449Z,4.10
2019-03-15T02:02:49.174Z,4.20
2019-03-15T02:05:50.080Z,4.20
2019-03-15T02:08:51.216Z,4.20
2019-03-15T02:11:52.140Z,4.20
2019-03-15T02:14:53.464Z,4.10
2019-03-15T02:17:54.444Z,4.10
2019-03-15T02:20:56.790Z,4.10
2019-03-15T02:23:57.545Z,4.10
2019-03-15T02:26:58.653Z,4.20
2019-03-15T02:29:59.916Z,4.40
2019-03-15T02:33:01.059Z,4.20
2019-03-15T02:36:02.155Z,4.40
2019-03-15T02:39:03.888Z,4.30
2019-03-15T02:42:04.494Z,4.20
2019-03-15T02:45:06.265Z,4.30
2019-03-15T02:48:07.512Z,4.30
2019-03-15T02:51:08.599Z,4.20
2019-03-15T02:54:09.699Z,4.10
2019-03-15T02:57:10.607Z,4.20
2019-03-15T03:00:11.687Z,4.20
2019-03-15T03:03:12.941Z,4.20
2019-03-15T03:06:14.123Z,4.40
2019-03-15T03:09:15.279Z,4.30
2019-03-15T03:12:17.450Z,4.30
2019-03-15T03:15:18.384Z,4.30
2019-03-15T03:18:19.506Z,4.30
2019-03-15T03:21:20.700Z,4.10
2019-03-15T03:24:22.198Z,4.40
2019-03-15T03:27:23.063Z,4.20
2019-03-15T03:30:24.194Z,4.30
2019-03-15T03:33:25.181Z,4.30
2019-03-15T03:36:26.190Z,4.30
2019-03-15T03:39:27.233Z,4.30
2019-03-15T03:42:28.403Z,4.30
2019-03-15T03:45:29.308Z,4.20
2019-03-15T03:48:30.380Z,4.30
2019-03-15T03:51:31.372Z,4.20
2019-03-15T03:54:32.428Z,4.20
2019-03-15T03:57:33.431Z,4.40
2019-03-15T04:00:35.271Z,4.20
2019-03-15T04:03:36.517Z,4.30
2019-03-15T04:06:37.463Z,4.30
2019-03-15T04:09:38.323Z,4.20
2019-03-15T04:12:39.344Z,4.30
2019-03-15T04:15:40.593Z,4.30
2019-03-15T04:18:41.514Z,4.40
2019-03-15T04:21:43.696Z,4.40
2019-03-15T04:24:44.837Z,4.30
2019-03-15T04:27:45.949Z,4.40
2019-03-15T04:30:46.907Z,4.40
2019-03-15T04:33:48.019Z,4.30
2019-03-15T04:36:49.004Z,4.40
2019-03-15T04:39:50.131Z,4.40
2019-03-15T04:42:51.311Z,4.40
2019-03-15T04:45:52.183Z,4.40
2019-03-15T04:48:53.365Z,4.30
2019-03-15T04:51:54.533Z,4.30
2019-03-15T04:54:55.688Z,4.30
2019-03-15T04:57:56.923Z,4.20
2019-03-15T05:00:58.027Z,4.40
2019-03-15T05:03:58.273Z,4.20
2019-03-15T05:07:00.362Z,4.30
2019-03-15T05:10:01.324Z,4.20
2019-03-15T05:13:02.380Z,4.20
2019-03-15T05:16:03.483Z,4.20
2019-03-15T05:19:04.488Z,4.20
2019-03-15T05:22:05.630Z,4.30
2019-03-15T05:25:06.555Z,4.20
2019-03-15T05:28:07.477Z,4.20
2019-03-15T05:31:08.611Z,4.30
2019-03-15T05:34:09.692Z,4.20
2019-03-15T05:37:10.784Z,4.20
2019-03-15T05:40:11.880Z,4.20
2019-03-15T05:43:12.841Z,4.20
2019-03-15T05:46:13.815Z,4.30
2019-03-15T05:49:14.681Z,4.10
2019-03-15T05:52:15.716Z,4.20
2019-03-15T05:55:17.139Z,4.20
2019-03-15T05:58:21.664Z,4.20
2019-03-15T06:01:21.260Z,4.20
2019-03-15T06:04:22.107Z,4.30
2019-03-15T06:07:23.240Z,4.20
2019-03-15T06:10:24.335Z,4.10
2019-03-15T06:13:25.287Z,4.20
2019-03-15T06:16:26.340Z,4.10
2019-03-15T06:19:27.375Z,4.20
2019-03-15T06:22:28.627Z,4.10
2019-03-15T06:25:30.557Z,4.20
2019-03-15T06:28:31.600Z,4.20
2019-03-15T06:31:32.924Z,4.10
2019-03-15T06:34:33.812Z,4.10
2019-03-15T06:37:34.738Z,4.20
2019-03-15T06:40:35.789Z,4.20
2019-03-15T06:43:36.921Z,4.20
2019-03-15T06:46:38.135Z,4.10
2019-03-15T06:49:39.024Z,4.20
2019-03-15T06:52:40.081Z,4.20
2019-03-15T06:55:41.256Z,4.50
2019-03-15T06:58:43.412Z,4.50
2019-03-15T07:01:43.752Z,4.60
2019-03-15T07:04:44.919Z,4.70
2019-03-15T07:07:46.059Z,4.80
2019-03-15T07:10:46.871Z,4.90
2019-03-15T07:13:48.690Z,5.00
2019-03-15T07:16:49.885Z,4.90
2019-03-15T07:19:50.130Z,5.00
2019-03-15T07:22:51.052Z,4.90
2019-03-15T07:25:52.085Z,5.00
2019-03-15T07:28:53.076Z,5.00
2019-03-15T07:31:54.192Z,5.10
2019-03-15T07:34:55.229Z,5.10
2019-03-15T07:37:56.531Z,5.10
2019-03-15T07:40:57.626Z,5.20
2019-03-15T07:43:58.116Z,5.20
2019-03-15T07:47:00.264Z,5.30
2019-03-15T07:50:01.554Z,5.30
2019-03-15T07:53:02.535Z,5.40
2019-03-15T07:56:03.579Z,5.50
2019-03-15T07:59:04.507Z,5.50
2019-03-15T08:02:05.784Z,5.60
2019-03-15T08:05:07.120Z,5.80
2019-03-15T08:08:07.266Z,5.70
2019-03-15T08:11:08.224Z,5.70
2019-03-15T08:14:09.210Z,5.80
2019-03-15T08:17:10.240Z,5.90
2019-03-15T08:20:11.591Z,6.00
2019-03-15T08:23:12.666Z,6.00
2019-03-15T08:26:13.003Z,6.00
2019-03-15T08:29:13.920Z,6.10
2019-03-15T08:32:15.095Z,6.20
2019-03-15T08:35:16.227Z,6.20
2019-03-15T08:38:17.239Z,6.20
2019-03-15T08:41:18.529Z,6.30
2019-03-15T08:44:19.343Z,6.30
2019-03-15T08:47:21.888Z,6.30
2019-03-15T08:50:24.697Z,6.30
2019-03-15T08:53:25.588Z,6.30
2019-03-15T08:56:26.580Z,6.50
2019-03-15T08:59:27.623Z,6.50
2019-03-15T09:02:28.484Z,6.50
2019-03-15T09:05:29.527Z,6.50
2019-03-15T09:08:30.637Z,6.60
2019-03-15T09:11:31.893Z,6.70
2019-03-15T09:14:33.037Z,6.70
2019-03-15T09:17:20.523Z,6.90
2019-03-15T09:20:21.104Z,6.90
2019-03-15T09:23:21.349Z,7.00
2019-03-15T09:26:27.540Z,7.10
2019-03-15T09:29:28.549Z,7.20
2019-03-15T09:32:28.893Z,7.20
2019-03-15T09:35:30.100Z,7.10
2019-03-15T09:38:31.296Z,7.30
2019-03-15T09:41:39.564Z,7.20
2019-03-15T09:44:21.519Z,7.30
2019-03-15T09:47:22.435Z,7.30
2019-03-15T09:50:33.950Z,7.20
2019-03-15T09:53:26.255Z,7.20
2019-03-15T09:56:27.929Z,7.20
2019-03-15T09:59:28.341Z,7.10
2019-03-15T10:02:35.348Z,7.30
2019-03-15T10:05:36.215Z,7.30
2019-03-15T10:08:37.281Z,7.30
2019-03-15T10:11:38.524Z,7.30
2019-03-15T10:14:39.611Z,7.40
2019-03-15T10:17:40.438Z,7.30
2019-03-15T10:20:41.473Z,7.30
2019-03-15T10:23:41.580Z,7.30
2019-03-15T10:26:47.707Z,7.30
2019-03-15T10:29:48.936Z,7.30
2019-03-15T10:32:49.946Z,7.50
2019-03-15T10:35:50.219Z,7.40
2019-03-15T10:38:51.367Z,7.40
2019-03-15T10:41:52.570Z,7.40
2019-03-15T10:44:53.467Z,7.60
2019-03-15T10:47:55.527Z,7.60
2019-03-15T10:50:56.643Z,7.80
2019-03-15T10:53:57.548Z,7.90
2019-03-15T10:56:58.436Z,7.90
2019-03-15T10:59:59.567Z,7.70
2019-03-15T11:03:01.456Z,7.50
2019-03-15T11:06:02.584Z,7.50
2019-03-15T11:09:03.738Z,7.50
2019-03-15T11:12:04.648Z,7.50
2019-03-15T11:15:05.831Z,7.40
2019-03-15T11:18:06.613Z,7.40
2019-03-15T11:21:07.817Z,7.50
2019-03-15T11:24:09.699Z,7.20
2019-03-15T11:27:10.685Z,7.10
2019-03-15T11:30:12.694Z,7.10
2019-03-15T11:33:14.517Z,7.00
2019-03-15T11:36:15.512Z,7.00
2019-03-15T11:39:15.860Z,6.90
2019-03-15T11:42:16.908Z,6.80
2019-03-15T11:45:18.005Z,6.60
2019-03-15T11:48:19.136Z,6.60
2019-03-15T11:54:20.319Z,6.60
2019-03-15T11:57:21.215Z,6.60
2019-03-15T12:00:22.316Z,6.60
2019-03-15T12:03:23.279Z,6.70
2019-03-15T12:06:24.485Z,6.60
2019-03-15T12:09:25.513Z,6.70
2019-03-15T12:12:26.625Z,6.80
2019-03-15T12:15:27.644Z,6.80
2019-03-15T12:18:29.011Z,6.80
2019-03-15T12:21:30.023Z,6.80
2019-03-15T12:24:31.058Z,6.60
2019-03-15T12:27:32.211Z,6.60
2019-03-15T12:30:33.306Z,6.50
2019-03-15T12:33:34.451Z,6.40
2019-03-15T12:36:35.519Z,6.50
2019-03-15T12:39:36.599Z,6.50
2019-03-15T12:42:37.466Z,6.50
2019-03-15T12:45:38.474Z,6.60
2019-03-15T12:48:39.538Z,6.60
2019-03-15T12:51:40.431Z,6.50
2019-03-15T12:54:41.419Z,6.60
2019-03-15T12:57:42.507Z,6.60
2019-03-15T13:00:43.600Z,6.50
2019-03-15T13:03:44.496Z,6.50
2019-03-15T13:06:45.660Z,6.50
2019-03-15T13:09:46.771Z,6.50
2019-03-15T13:12:47.876Z,6.50
2019-03-15T13:15:48.840Z,6.40
2019-03-15T13:18:49.808Z,6.60
2019-03-15T13:21:50.827Z,6.40
2019-03-15T13:24:51.881Z,6.40
2019-03-15T13:27:52.970Z,6.50
2019-03-15T13:30:53.981Z,6.60
2019-03-15T13:33:55.027Z,6.50
2019-03-15T13:36:56.176Z,6.50
2019-03-15T13:39:57.291Z,6.50
2019-03-15T13:42:58.424Z,6.50
2019-03-15T13:45:59.425Z,6.50
2019-03-15T13:49:00.511Z,6.60
2019-03-15T13:52:01.563Z,6.60
2019-03-15T13:55:02.603Z,6.70
2019-03-15T13:58:03.793Z,6.80
2019-03-15T14:01:04.873Z,6.80
2019-03-15T14:04:06.092Z,6.80
2019-03-15T14:07:07.116Z,6.80
2019-03-15T14:10:08.268Z,6.80
2019-03-15T14:13:11.810Z,6.70
2019-03-15T14:16:11.387Z,6.80
2019-03-15T14:19:18.544Z,6.80
2019-03-15T14:22:19.592Z,6.80
2019-03-15T14:25:20.800Z,6.80
2019-03-15T14:28:21.936Z,6.70
2019-03-15T14:31:22.869Z,6.70
2019-03-15T14:34:23.855Z,6.60
2019-03-15T14:37:24.997Z,6.60
2019-03-15T14:40:25.792Z,6.60
2019-03-15T14:43:27.829Z,6.70
2019-03-15T14:46:28.895Z,6.70
2019-03-15T14:49:30.097Z,6.80
2019-03-15T14:52:31.290Z,6.80
2019-03-15T14:55:32.237Z,6.80
2019-03-15T14:58:33.483Z,7.00
2019-03-15T15:01:34.628Z,7.00
2019-03-15T15:04:35.724Z,7.00
2019-03-15T15:07:36.760Z,6.90
2019-03-15T15:10:38.284Z,7.00
2019-03-15T15:13:39.156Z,7.10
2019-03-15T15:16:40.537Z,7.10
2019-03-15T15:19:41.383Z,7.20
2019-03-15T15:22:42.483Z,7.30
2019-03-15T15:25:43.578Z,7.30
2019-03-15T15:28:44.736Z,7.40
2019-03-15T15:31:45.674Z,7.50
2019-03-15T15:34:46.776Z,7.50
2019-03-15T15:37:47.748Z,7.60
2019-03-15T15:40:48.678Z,7.50
2019-03-15T15:43:48.874Z,7.70
2019-03-15T15:46:50.152Z,7.80
2019-03-15T15:49:51.192Z,7.80
2019-03-15T15:52:52.001Z,7.90
2019-03-15T15:55:53.111Z,7.90
2019-03-15T15:58:54.404Z,8.00
2019-03-15T16:01:55.388Z,8.10
2019-03-15T16:04:56.503Z,8.10
2019-03-15T16:07:56.896Z,8.20
2019-03-15T16:10:57.735Z,8.10
2019-03-15T16:13:58.823Z,8.10
2019-03-15T16:17:00.173Z,8.20
2019-03-15T16:20:01.444Z,8.30
2019-03-15T16:23:02.554Z,8.30
2019-03-15T16:26:03.404Z,8.40
2019-03-15T16:29:04.670Z,8.50
2019-03-15T16:32:05.917Z,8.50
2019-03-15T16:35:07.008Z,8.50
2019-03-15T16:38:09.170Z,8.70
2019-03-15T16:41:10.629Z,8.70
2019-03-15T16:44:11.240Z,8.70
2019-03-15T16:47:12.506Z,8.60
2019-03-15T16:50:13.560Z,8.70
2019-03-15T16:53:14.636Z,8.60
2019-03-15T16:56:15.764Z,8.70
2019-03-15T16:59:16.137Z,8.70
2019-03-15T17:02:16.492Z,8.60
2019-03-15T17:05:17.496Z,8.80
2019-03-15T17:08:18.545Z,8.70
2019-03-15T17:11:19.597Z,8.80
2019-03-15T17:14:25.431Z,8.80
2019-03-15T17:17:23.832Z,8.90
2019-03-15T17:20:24.787Z,8.90
2019-03-15T17:23:25.733Z,9.00
2019-03-15T17:26:26.879Z,8.90
2019-03-15T17:29:27.892Z,9.00
2019-03-15T17:32:29.896Z,9.10
2019-03-15T17:35:30.861Z,9.10
2019-03-15T17:38:31.813Z,9.20
2019-03-15T17:41:32.991Z,9.30
2019-03-15T17:44:35.200Z,9.40
2019-03-15T17:47:36.279Z,9.30
2019-03-15T17:50:37.526Z,9.30
2019-03-15T17:53:38.643Z,9.40
2019-03-15T17:56:39.824Z,9.40
2019-03-15T17:59:40.683Z,9.40
2019-03-15T18:02:41.893Z,9.40
2019-03-15T18:05:43.940Z,9.30
2019-03-15T18:08:44.932Z,9.40
2019-03-15T18:11:46.096Z,9.50
2019-03-15T18:14:47.044Z,9.60
2019-03-15T18:17:48.100Z,9.40
2019-03-15T18:20:49.122Z,9.60
2019-03-15T18:23:50.024Z,9.40
2019-03-15T18:26:51.244Z,9.40
2019-03-15T18:29:52.132Z,9.40
2019-03-15T18:32:53.297Z,9.20
2019-03-15T18:35:54.254Z,9.30
2019-03-15T18:38:55.316Z,9.30
2019-03-15T18:41:55.455Z,9.40
2019-03-15T18:44:55.703Z,9.50
2019-03-15T18:47:56.735Z,9.40
2019-03-15T18:50:57.165Z,9.30
2019-03-15T18:53:57.311Z,9.30
2019-03-15T18:56:58.367Z,9.20
2019-03-15T18:59:59.452Z,9.20
2019-03-15T19:03:00.554Z,9.20
2019-03-15T19:06:01.702Z,9.10
2019-03-15T19:09:03.324Z,9.20
2019-03-15T19:12:05.007Z,9.20
2019-03-15T19:15:06.044Z,9.20
2019-03-15T19:18:07.126Z,9.20
2019-03-15T19:21:08.180Z,9.30
2019-03-15T19:24:09.255Z,9.30
2019-03-15T19:27:11.301Z,9.30
2019-03-15T19:30:12.240Z,9.30
2019-03-15T19:33:13.200Z,8.90
2019-03-15T19:36:14.431Z,7.90
2019-03-15T19:39:15.408Z,7.40
2019-03-15T19:42:16.288Z,7.30
2019-03-15T19:45:17.258Z,7.20
2019-03-15T19:48:18.500Z,7.20
2019-03-15T19:51:20.592Z,7.20
2019-03-15T19:54:21.612Z,7.20
2019-03-15T19:57:22.703Z,7.20
2019-03-15T20:00:23.972Z,7.20
2019-03-15T20:03:25.000Z,7.20
2019-03-15T20:06:25.865Z,7.10
2019-03-15T20:09:26.802Z,7.10
2019-03-15T20:12:27.879Z,7.00
2019-03-15T20:15:28.819Z,7.00
2019-03-15T20:18:30.028Z,7.10
2019-03-15T20:21:31.075Z,7.00
2019-03-15T20:24:32.179Z,7.00
2019-03-15T20:27:34.425Z,7.00
2019-03-15T20:30:35.008Z,6.90
2019-03-15T20:33:36.203Z,6.70
2019-03-15T20:36:37.331Z,6.70
2019-03-15T20:39:38.244Z,6.60
2019-03-15T20:42:39.362Z,6.50
2019-03-15T20:45:50.256Z,6.70
2019-03-15T20:48:52.416Z,6.50
2019-03-15T20:51:52.588Z,6.50
2019-03-15T20:54:52.723Z,6.50
2019-03-15T20:57:54.058Z,6.50
2019-03-15T21:00:55.435Z,6.50
2019-03-15T21:03:59.394Z,6.40
2019-03-15T21:07:01.528Z,6.40
2019-03-15T21:10:02.373Z,6.40
2019-03-15T21:13:03.815Z,6.30
2019-03-15T21:16:05.965Z,6.20
2019-03-15T21:19:08.760Z,6.30
2019-03-15T21:21:57.280Z,6.30
2019-03-15T21:24:59.327Z,6.20
2019-03-15T21:28:01.285Z,6.10
2019-03-15T21:31:02.508Z,6.40
2019-03-15T21:34:03.754Z,6.20
2019-03-15T21:37:05.050Z,6.30
2019-03-15T21:40:06.330Z,6.30
2019-03-15T21:43:07.608Z,6.20
2019-03-15T21:46:08.744Z,6.30
2019-03-15T21:49:13.057Z,6.20
2019-03-15T21:52:14.920Z,6.10
2019-03-15T21:55:15.997Z,6.30
2019-03-15T21:58:18.170Z,6.20
2019-03-15T22:01:19.253Z,6.20
2019-03-15T22:04:21.561Z,6.20
2019-03-15T22:07:22.506Z,6.30
2019-03-15T22:10:24.467Z,6.20
2019-03-15T22:13:25.371Z,6.10
2019-03-15T22:16:13.169Z,6.10
2019-03-15T22:19:14.749Z,6.20
2019-03-15T22:22:15.653Z,6.20
2019-03-15T22:25:17.685Z,6.10
2019-03-15T22:28:18.784Z,6.20
2019-03-15T22:31:20.040Z,6.20
2019-03-15T22:34:22.562Z,6.20
2019-03-15T22:37:23.395Z,6.10
2019-03-15T22:40:24.648Z,6.30
2019-03-15T22:43:35.338Z,6.20
2019-03-15T22:46:36.352Z,6.20
2019-03-15T22:49:38.242Z,6.20
2019-03-15T22:52:39.835Z,6.20
2019-03-15T22:55:40.972Z,6.20
2019-03-15T22:58:41.955Z,6.10
2019-03-15T23:01:43.181Z,6.20
2019-03-15T23:04:55.972Z,6.10
2019-03-15T23:07:58.529Z,6.10
2019-03-15T23:11:00.640Z,6.10
2019-03-15T23:14:02.899Z,6.20
2019-03-15T23:17:04.067Z,6.10
2019-03-15T23:19:51.883Z,6.20
2019-03-15T23:22:54.818Z,6.00
2019-03-15T23:25:56.439Z,6.00
2019-03-15T23:28:57.844Z,6.00
2019-03-15T23:31:59.971Z,6.00
2019-03-15T23:35:02.492Z,5.90
2019-03-15T23:38:03.721Z,6.10
2019-03-15T23:41:05.019Z,5.90
2019-03-15T23:44:05.856Z,6.00
2019-03-15T23:47:06.230Z,5.90
2019-03-15T23:50:08.364Z,6.00
2019-03-15T23:53:08.729Z,5.90
2019-03-15T23:56:10.228Z,5.90
2019-03-15T23:59:11.286Z,6.00
